createdAt,value
2023-03-06T00:00:23.227Z,99278.38
2023-03-06T00:02:52.289Z,99280.13
2023-03-06T00:05:20.830Z,99277.50
2023-03-06T00:07:49.019Z,99283.56
2023-03-06T00:10:19.641Z,99286.13
2023-03-06T00:12:47.734Z,99281.81
2023-03-06T00:15:16.176Z,99273.13
2023-03-06T00:17:45.582Z,99273.13
2023-03-06T00:20:15.100Z,99265.28
2023-03-06T00:22:43.881Z,99274.69
2023-03-06T00:25:15.316Z,99269.44
2023-03-06T00:27:43.764Z,99265.97
2023-03-06T00:30:14.632Z,99271.13
2023-03-06T00:32:43.873Z,99257.25
2023-03-06T00:35:14.461Z,99265.84
2023-03-06T00:37:45.157Z,99272.72
2023-03-06T00:40:15.876Z,99270.91
2023-03-06T00:42:44.247Z,99269.19
2023-03-06T00:45:12.907Z,99259.66
2023-03-06T00:47:41.096Z,99268.25
2023-03-06T00:50:10.626Z,99257.84
2023-03-06T00:52:42.012Z,99267.28
2023-03-06T00:55:10.873Z,99265.50
2023-03-06T00:57:40.332Z,99267.22
2023-03-06T01:00:10.978Z,99266.28
2023-03-06T01:02:39.313Z,99269.72
2023-03-06T01:05:08.690Z,99263.69
2023-03-06T01:07:39.885Z,99266.25
2023-03-06T01:10:09.061Z,99271.47
2023-03-06T01:12:37.104Z,99270.63
2023-03-06T01:15:06.230Z,99268.94
2023-03-06T01:17:34.171Z,99268.03
2023-03-06T01:20:04.428Z,99272.38
2023-03-06T01:22:32.485Z,99274.13
2023-03-06T01:25:02.268Z,99275.00
2023-03-06T01:27:31.285Z,99278.47
2023-03-06T01:29:59.289Z,99269.09
2023-03-06T01:32:27.360Z,99270.94
2023-03-06T01:34:55.673Z,99266.72
2023-03-06T01:37:23.685Z,99273.69
2023-03-06T01:39:51.754Z,99279.84
2023-03-06T01:42:21.059Z,99271.28
2023-03-06T01:45:02.993Z,99275.63
2023-03-06T01:47:31.781Z,99271.31
2023-03-06T01:50:03.800Z,99271.31
2023-03-06T01:52:34.754Z,99270.47
2023-03-06T01:55:06.584Z,99268.72
2023-03-06T01:57:39.599Z,99270.44
2023-03-06T02:00:11.174Z,99266.13
2023-03-06T02:02:46.472Z,99267.84
2023-03-06T02:05:15.031Z,99269.56
2023-03-06T02:07:44.247Z,99272.16
2023-03-06T02:10:15.174Z,99274.69
2023-03-06T02:12:46.159Z,99266.94
2023-03-06T02:15:17.036Z,99273.84
2023-03-06T02:17:47.582Z,99266.06
2023-03-06T02:20:26.213Z,99258.31
2023-03-06T02:23:04.279Z,99248.81
2023-03-06T02:25:39.258Z,99251.44
2023-03-06T02:28:09.760Z,99254.06
2023-03-06T02:30:38.539Z,99257.53
2023-03-06T02:33:07.297Z,99257.53
2023-03-06T02:35:37.368Z,99248.09
2023-03-06T02:38:09.891Z,99250.72
2023-03-06T02:40:39.405Z,99240.34
2023-03-06T02:43:08.764Z,99247.25
2023-03-06T02:45:39.181Z,99245.56
2023-03-06T02:48:08.381Z,99247.31
2023-03-06T02:50:36.445Z,99246.50
2023-03-06T02:53:04.531Z,99240.47
2023-03-06T02:55:32.909Z,99246.50
2023-03-06T02:58:04.419Z,99246.50
2023-03-06T03:00:33.829Z,99243.06
2023-03-06T03:03:05.029Z,99250.84
2023-03-06T03:05:33.713Z,99246.53
2023-03-06T03:08:09.436Z,99246.53
2023-03-06T03:10:37.629Z,99246.53
2023-03-06T03:13:07.061Z,99244.81
2023-03-06T03:15:36.321Z,99245.69
2023-03-06T03:18:04.995Z,99252.59
2023-03-06T03:20:33.033Z,99247.41
2023-03-06T03:23:01.043Z,99250.84
2023-03-06T03:25:29.305Z,99240.47
2023-03-06T03:27:59.361Z,99253.44
2023-03-06T03:30:29.462Z,99254.31
2023-03-06T03:32:57.781Z,99247.38
2023-03-06T03:35:26.901Z,99243.09
2023-03-06T03:37:55.376Z,99249.97
2023-03-06T03:40:23.841Z,99247.38
2023-03-06T03:42:52.631Z,99254.31
2023-03-06T03:45:21.388Z,99249.09
2023-03-06T03:47:51.332Z,99254.31
2023-03-06T03:50:20.493Z,99258.66
2023-03-06T03:52:48.957Z,99254.28
2023-03-06T03:55:17.128Z,99262.09
2023-03-06T03:57:45.289Z,99246.50
2023-03-06T04:00:16.744Z,99249.97
2023-03-06T04:02:56.429Z,99256.00
2023-03-06T04:05:33.337Z,99247.34
2023-03-06T04:08:03.329Z,99243.00
2023-03-06T04:10:34.335Z,99244.75
2023-03-06T04:13:03.490Z,99244.72
2023-03-06T04:15:32.061Z,99243.84
2023-03-06T04:18:03.217Z,99246.44
2023-03-06T04:20:31.388Z,99242.97
2023-03-06T04:23:01.389Z,99247.28
2023-03-06T04:25:29.659Z,99236.03
2023-03-06T04:27:59.541Z,99240.34
2023-03-06T04:30:28.854Z,99240.34
2023-03-06T04:32:56.955Z,99232.56
2023-03-06T04:35:26.660Z,99233.41
2023-03-06T04:38:02.290Z,99231.66
2023-03-06T04:40:33.891Z,99229.88
2023-03-06T04:43:03.203Z,99229.91
2023-03-06T04:45:32.494Z,99224.69
2023-03-06T04:48:00.499Z,99235.97
2023-03-06T04:50:32.714Z,99228.13
2023-03-06T04:53:01.768Z,99231.59
2023-03-06T04:55:30.541Z,99229.03
2023-03-06T04:57:59.219Z,99222.97
2023-03-06T05:00:31.525Z,99226.44
2023-03-06T05:03:01.466Z,99233.38
2023-03-06T05:05:31.215Z,99229.06
2023-03-06T05:07:59.274Z,99216.91
2023-03-06T05:10:27.238Z,99220.38
2023-03-06T05:12:55.252Z,99228.19
2023-03-06T05:15:23.211Z,99223.00
2023-03-06T05:17:51.281Z,99220.34
2023-03-06T05:20:19.461Z,99217.72
2023-03-06T05:22:48.877Z,99214.25
2023-03-06T05:25:16.850Z,99221.97
2023-03-06T05:27:45.073Z,99219.34
2023-03-06T05:30:14.879Z,99224.47
2023-03-06T05:32:42.911Z,99216.63
2023-03-06T05:35:18.318Z,99220.94
2023-03-06T05:37:46.469Z,99214.78
2023-03-06T05:40:17.317Z,99224.22
2023-03-06T05:42:45.746Z,99229.38
2023-03-06T05:45:14.257Z,99225.09
2023-03-06T05:47:42.803Z,99224.28
2023-03-06T05:50:12.207Z,99226.88
2023-03-06T05:52:40.813Z,99226.88
2023-03-06T05:55:11.707Z,99225.88
2023-03-06T05:57:42.336Z,99227.44
2023-03-06T06:00:11.767Z,99226.34
2023-03-06T06:02:45.127Z,99223.63
2023-03-06T06:05:14.187Z,99221.75
2023-03-06T06:07:42.833Z,99216.47
2023-03-06T06:10:13.043Z,99222.41
2023-03-06T06:12:42.606Z,99220.53
2023-03-06T06:15:11.315Z,99214.41
2023-03-06T06:17:39.260Z,99215.31
2023-03-06T06:20:08.537Z,99220.59
2023-03-06T06:22:38.366Z,99221.47
2023-03-06T06:25:07.630Z,99223.22
2023-03-06T06:27:35.905Z,99217.22
2023-03-06T06:30:06.941Z,99219.88
2023-03-06T06:32:35.062Z,99219.09
2023-03-06T06:35:03.794Z,99223.50
2023-03-06T06:37:32.132Z,99224.38
2023-03-06T06:40:00.273Z,99220.91
2023-03-06T06:42:35.200Z,99222.75
2023-03-06T06:45:09.106Z,99226.22
2023-03-06T06:47:41.120Z,99227.84
2023-03-06T06:50:12.500Z,99226.16
2023-03-06T06:52:40.786Z,99222.69
2023-03-06T06:55:10.364Z,99220.03
2023-03-06T06:57:38.600Z,99224.22
2023-03-06T07:00:11.075Z,99227.88
2023-03-06T07:02:39.200Z,99227.16
2023-03-06T07:05:08.397Z,99220.69
2023-03-06T07:07:38.434Z,99213.13
2023-03-06T07:10:12.400Z,99209.28
2023-03-06T07:12:40.498Z,99213.97
2023-03-06T07:15:13.209Z,99210.38
2023-03-06T07:17:41.398Z,99207.50
2023-03-06T07:20:11.215Z,99213.50
2023-03-06T07:22:50.225Z,99209.09
2023-03-06T07:25:19.041Z,99206.84
2023-03-06T07:27:53.383Z,99207.38
2023-03-06T07:30:24.526Z,99208.88
2023-03-06T07:32:56.435Z,99217.69
2023-03-06T07:35:25.652Z,99200.00
2023-03-06T07:37:54.602Z,99217.38
2023-03-06T07:40:23.011Z,99216.34
2023-03-06T07:42:51.125Z,99224.56
2023-03-06T07:45:27.053Z,99228.47
2023-03-06T07:47:55.365Z,99228.16
2023-03-06T07:50:23.681Z,99229.38
2023-03-06T07:52:52.813Z,99224.59
2023-03-06T07:55:21.349Z,99233.09
2023-03-06T07:57:51.682Z,99238.19
2023-03-06T08:00:20.663Z,99230.84
2023-03-06T08:02:50.278Z,99231.41
2023-03-06T08:05:18.922Z,99241.31
2023-03-06T08:07:47.098Z,99240.81
2023-03-06T08:10:17.153Z,99231.66
2023-03-06T08:12:45.444Z,99239.66
2023-03-06T08:15:14.360Z,99239.59
2023-03-06T08:17:42.550Z,99238.59
2023-03-06T08:20:14.439Z,99247.06
2023-03-06T08:22:42.587Z,99235.94
2023-03-06T08:25:11.696Z,99234.66
2023-03-06T08:27:41.069Z,99241.13
2023-03-06T08:30:10.665Z,99233.94
2023-03-06T08:32:39.276Z,99234.28
2023-03-06T08:35:08.069Z,99242.41
2023-03-06T08:37:37.863Z,99239.47
2023-03-06T08:40:06.864Z,99240.53
2023-03-06T08:42:34.871Z,99240.72
2023-03-06T08:45:03.018Z,99240.72
2023-03-06T08:47:31.711Z,99245.78
2023-03-06T08:50:00.787Z,99250.03
2023-03-06T08:52:29.197Z,99252.69
2023-03-06T08:55:03.505Z,99259.75
2023-03-06T08:57:31.992Z,99256.72
2023-03-06T09:00:00.230Z,99258.59
2023-03-06T09:02:28.394Z,99262.44
2023-03-06T09:04:56.576Z,99260.97
2023-03-06T09:07:24.606Z,99266.41
2023-03-06T09:09:58.382Z,99264.00
2023-03-06T09:12:28.116Z,99262.31
2023-03-06T09:14:57.481Z,99258.78
2023-03-06T09:17:25.610Z,99267.66
2023-03-06T09:19:53.701Z,99263.59
2023-03-06T09:22:21.863Z,99258.59
2023-03-06T09:24:50.753Z,99254.56
2023-03-06T09:27:20.196Z,99263.47
2023-03-06T09:29:48.205Z,99265.28
2023-03-06T09:32:16.280Z,99269.91
2023-03-06T09:34:44.311Z,99262.19
2023-03-06T09:37:12.342Z,99260.66
2023-03-06T09:39:40.524Z,99266.81
2023-03-06T09:42:12.255Z,99269.41
2023-03-06T09:44:43.472Z,99262.53
2023-03-06T09:47:41.610Z,99267.53
2023-03-06T09:50:27.590Z,99265.78
2023-03-06T09:53:17.892Z,99263.22
2023-03-06T09:55:51.566Z,99271.03
2023-03-06T09:58:22.963Z,99266.81
2023-03-06T10:00:58.939Z,99271.19
2023-03-06T10:03:31.740Z,99268.72
2023-03-06T10:06:05.161Z,99274.78
2023-03-06T10:08:44.124Z,99264.41
2023-03-06T10:11:15.782Z,99274.88
2023-03-06T10:13:47.265Z,99270.53
2023-03-06T10:16:29.312Z,99278.41
2023-03-06T10:19:02.418Z,99272.25
2023-03-06T10:21:43.519Z,99272.97
2023-03-06T10:24:25.051Z,99276.28
2023-03-06T10:27:00.587Z,99272.50
2023-03-06T10:29:47.632Z,99268.72
2023-03-06T10:32:39.553Z,99271.63
2023-03-06T10:35:19.098Z,99266.97
2023-03-06T10:37:47.344Z,99273.47
2023-03-06T10:40:20.370Z,99268.72
2023-03-06T10:42:52.058Z,99267.94
2023-03-06T10:45:24.345Z,99276.56
2023-03-06T10:48:11.032Z,99277.31
2023-03-06T10:50:39.545Z,99265.94
2023-03-06T10:53:17.134Z,99273.25
2023-03-06T10:55:53.226Z,99283.72
2023-03-06T10:58:25.082Z,99279.31
2023-03-06T11:01:06.946Z,99285.44
2023-03-06T11:03:37.728Z,99285.28
2023-03-06T11:06:13.166Z,99283.66
2023-03-06T11:08:43.203Z,99280.06
2023-03-06T11:11:13.854Z,99286.19
2023-03-06T11:13:44.148Z,99289.81
2023-03-06T11:16:20.477Z,99290.84
2023-03-06T11:18:59.187Z,99285.50
2023-03-06T11:21:32.181Z,99287.31
2023-03-06T11:24:06.923Z,99285.66
2023-03-06T11:26:42.784Z,99284.81
2023-03-06T11:29:38.171Z,99286.63
2023-03-06T11:32:12.665Z,99283.34
2023-03-06T11:34:50.418Z,99285.22
2023-03-06T11:37:30.952Z,99276.56
2023-03-06T11:40:07.766Z,99283.53
2023-03-06T11:42:40.842Z,99290.47
2023-03-06T11:45:25.427Z,99294.94
2023-03-06T11:48:02.839Z,99290.03
2023-03-06T11:50:37.056Z,99292.06
2023-03-06T11:53:07.826Z,99288.50
2023-03-06T11:55:47.484Z,99281.38
2023-03-06T11:58:36.467Z,99290.84
2023-03-06T12:01:10.025Z,99288.06
2023-03-06T12:03:56.938Z,99288.13
2023-03-06T12:06:37.821Z,99291.56
2023-03-06T12:09:26.921Z,99287.09
2023-03-06T12:12:08.364Z,99293.19
2023-03-06T12:14:52.279Z,99291.25
2023-03-06T12:17:28.167Z,99292.00
2023-03-06T12:20:15.011Z,99292.16
2023-03-06T12:22:58.167Z,99285.97
2023-03-06T12:25:38.148Z,99288.66
2023-03-06T12:28:23.632Z,99289.66
2023-03-06T12:31:09.293Z,99284.31
2023-03-06T12:33:44.848Z,99284.47
2023-03-06T12:36:25.474Z,99281.38
2023-03-06T12:39:18.573Z,99288.22
2023-03-06T12:41:58.947Z,99294.25
2023-03-06T12:44:56.626Z,99291.03
2023-03-06T12:47:26.661Z,99282.38
2023-03-06T12:50:00.036Z,99287.44
2023-03-06T12:52:30.728Z,99283.25
2023-03-06T12:55:02.455Z,99284.94
2023-03-06T12:57:33.089Z,99281.56
2023-03-06T13:00:01.165Z,99289.69
2023-03-06T13:02:54.587Z,99283.66
2023-03-06T13:05:38.126Z,99282.00
2023-03-06T13:08:28.663Z,99274.97
2023-03-06T13:11:18.742Z,99285.50
2023-03-06T13:13:48.913Z,99284.75
2023-03-06T13:16:25.636Z,99278.13
2023-03-06T13:19:03.128Z,99279.19
2023-03-06T13:22:07.870Z,99286.28
2023-03-06T13:24:37.630Z,99284.66
2023-03-06T13:27:11.687Z,99283.69
2023-03-06T13:30:04.147Z,99289.13
2023-03-06T13:32:35.404Z,99291.72
2023-03-06T13:35:28.274Z,99281.41
2023-03-06T13:37:56.736Z,99280.56
2023-03-06T13:40:33.643Z,99289.38
2023-03-06T13:43:22.650Z,99292.06
2023-03-06T13:45:51.807Z,99288.72
2023-03-06T13:48:44.344Z,99289.56
2023-03-06T13:51:25.011Z,99293.13
2023-03-06T13:54:33.486Z,99290.47
2023-03-06T13:57:24.251Z,99286.00
2023-03-06T14:00:24.926Z,99288.53
2023-03-06T14:03:28.291Z,99286.03
2023-03-06T14:05:56.733Z,99292.97
2023-03-06T14:08:26.414Z,99284.34
2023-03-06T14:11:04.021Z,99296.56
2023-03-06T14:13:45.435Z,99288.66
2023-03-06T14:16:21.345Z,99286.16
2023-03-06T14:18:51.686Z,99300.13
2023-03-06T14:21:30.996Z,99301.06
2023-03-06T14:24:00.941Z,99299.34
2023-03-06T14:26:32.912Z,99302.13
2023-03-06T14:29:02.301Z,99306.63
2023-03-06T14:31:34.040Z,99311.13
2023-03-06T14:34:04.935Z,99314.88
2023-03-06T14:36:36.717Z,99308.81
2023-03-06T14:39:09.836Z,99308.03
2023-03-06T14:41:38.245Z,99322.94
2023-03-06T14:44:18.117Z,99324.03
2023-03-06T14:46:49.975Z,99320.59
2023-03-06T14:49:19.953Z,99328.63
2023-03-06T14:51:50.241Z,99322.72
2023-03-06T14:54:21.114Z,99329.78
2023-03-06T14:56:53.158Z,99335.91
2023-03-06T14:59:26.278Z,99321.34
2023-03-06T15:02:00.610Z,99324.00
2023-03-06T15:04:36.666Z,99326.69
2023-03-06T15:07:10.584Z,99326.78
2023-03-06T15:09:40.424Z,99334.63
2023-03-06T15:12:29.980Z,99333.84
2023-03-06T15:15:00.395Z,99332.19
2023-03-06T15:17:32.287Z,99329.69
2023-03-06T15:20:02.143Z,99332.38
2023-03-06T15:22:37.918Z,99328.91
2023-03-06T15:25:20.716Z,99333.31
2023-03-06T15:27:50.887Z,99344.69
2023-03-06T15:30:27.878Z,99346.50
2023-03-06T15:33:25.062Z,99350.94
2023-03-06T15:35:56.996Z,99340.59
2023-03-06T15:38:31.043Z,99338.91
2023-03-06T15:41:01.067Z,99355.44
2023-03-06T15:43:32.565Z,99353.72
2023-03-06T15:46:02.337Z,99359.78
2023-03-06T15:48:31.774Z,99357.13
2023-03-06T15:50:59.931Z,99355.41
2023-03-06T15:53:28.516Z,99357.19
2023-03-06T15:55:57.581Z,99354.66
2023-03-06T15:58:30.404Z,99359.91
2023-03-06T16:00:59.062Z,99359.09
2023-03-06T16:03:27.411Z,99357.41
2023-03-06T16:05:56.929Z,99365.28
2023-03-06T16:08:25.113Z,99368.81
2023-03-06T16:10:53.343Z,99363.66
2023-03-06T16:13:27.621Z,99361.09
2023-03-06T16:15:56.228Z,99362.88
2023-03-06T16:18:24.215Z,99362.88
2023-03-06T16:20:52.375Z,99363.81
2023-03-06T16:23:21.759Z,99354.28
2023-03-06T16:25:50.925Z,99363.84
2023-03-06T16:28:19.302Z,99360.38
2023-03-06T16:30:47.547Z,99362.13
2023-03-06T16:33:15.708Z,99361.25
2023-03-06T16:35:47.344Z,99370.84
2023-03-06T16:38:16.416Z,99368.25
2023-03-06T16:40:45.949Z,99366.50
2023-03-06T16:43:16.130Z,99373.44
2023-03-06T16:45:44.826Z,99372.56
2023-03-06T16:48:17.212Z,99375.16
2023-03-06T16:50:45.744Z,99379.50
2023-03-06T16:53:13.963Z,99375.16
2023-03-06T16:55:42.655Z,99372.59
2023-03-06T16:58:12.155Z,99378.69
2023-03-06T17:00:40.456Z,99377.00
2023-03-06T17:03:08.590Z,99385.69
2023-03-06T17:05:39.393Z,99384.81
2023-03-06T17:08:07.635Z,99383.94
2023-03-06T17:10:35.934Z,99377.84
2023-03-06T17:13:05.138Z,99379.59
2023-03-06T17:15:34.763Z,99382.19
2023-03-06T17:18:02.871Z,99376.97
2023-03-06T17:20:31.105Z,99379.56
2023-03-06T17:22:59.188Z,99383.00
2023-03-06T17:25:27.603Z,99387.31
2023-03-06T17:27:55.644Z,99380.38
2023-03-06T17:30:23.805Z,99380.38
2023-03-06T17:32:53.707Z,99382.13
2023-03-06T17:35:21.755Z,99381.22
2023-03-06T17:37:49.875Z,99381.19
2023-03-06T17:40:18.198Z,99375.97
2023-03-06T17:42:46.267Z,99385.53
2023-03-06T17:45:14.408Z,99386.34
2023-03-06T17:47:42.496Z,99373.34
2023-03-06T17:50:13.096Z,99371.63
2023-03-06T17:52:41.241Z,99375.97
2023-03-06T17:55:11.313Z,99382.09
2023-03-06T17:57:40.218Z,99375.97
2023-03-06T18:00:13.894Z,99368.16
2023-03-06T18:02:47.382Z,99376.00
2023-03-06T18:05:20.822Z,99385.56
2023-03-06T18:07:48.993Z,99377.75
2023-03-06T18:10:22.163Z,99381.22
2023-03-06T18:12:50.469Z,99390.78
2023-03-06T18:15:18.983Z,99387.31
2023-03-06T18:17:47.429Z,99386.44
2023-03-06T18:20:21.698Z,99382.09
2023-03-06T18:22:49.873Z,99381.25
2023-03-06T18:25:20.706Z,99383.00
2023-03-06T18:27:50.916Z,99389.94
2023-03-06T18:30:19.394Z,99388.25
2023-03-06T18:32:49.197Z,99387.34
2023-03-06T18:35:17.857Z,99379.53
2023-03-06T18:37:47.322Z,99383.88
2023-03-06T18:40:15.785Z,99383.88
2023-03-06T18:42:43.855Z,99383.91
2023-03-06T18:45:13.270Z,99376.97
2023-03-06T18:47:42.109Z,99373.53
2023-03-06T18:50:16.403Z,99379.59
2023-03-06T18:52:45.164Z,99382.16
2023-03-06T18:55:14.500Z,99388.25
2023-03-06T18:57:42.626Z,99386.53
2023-03-06T19:00:11.842Z,99380.50
2023-03-06T19:02:39.965Z,99390.91
2023-03-06T19:05:08.790Z,99382.22
2023-03-06T19:07:36.774Z,99381.38
2023-03-06T19:10:05.605Z,99390.91
2023-03-06T19:12:35.731Z,99389.16
2023-03-06T19:15:04.703Z,99386.56
2023-03-06T19:17:32.777Z,99381.38
2023-03-06T19:20:00.820Z,99381.38
2023-03-06T19:22:28.837Z,99386.56
2023-03-06T19:24:56.905Z,99384.84
2023-03-06T19:27:25.080Z,99380.53
2023-03-06T19:29:56.820Z,99383.97
2023-03-06T19:32:25.140Z,99378.78
2023-03-06T19:34:54.456Z,99381.38
2023-03-06T19:37:22.523Z,99380.53
2023-03-06T19:39:50.553Z,99392.66
2023-03-06T19:42:21.514Z,99388.28
2023-03-06T19:44:49.618Z,99387.44
2023-03-06T19:47:19.045Z,99391.78
2023-03-06T19:49:47.203Z,99385.72
2023-03-06T19:52:15.722Z,99384.88
2023-03-06T19:54:44.119Z,99389.22
2023-03-06T19:57:12.347Z,99391.81
2023-03-06T19:59:40.414Z,99384.00
2023-03-06T20:02:10.737Z,99389.22
2023-03-06T20:04:40.488Z,99382.31
2023-03-06T20:07:08.826Z,99390.09
2023-03-06T20:09:36.874Z,99387.50
2023-03-06T20:12:07.807Z,99391.84
2023-03-06T20:14:36.321Z,99384.06
2023-03-06T20:17:04.496Z,99392.69
2023-03-06T20:19:32.778Z,99383.19
2023-03-06T20:22:02.236Z,99399.66
2023-03-06T20:24:30.283Z,99388.38
2023-03-06T20:26:59.529Z,99390.13
2023-03-06T20:29:28.485Z,99387.53
2023-03-06T20:34:26.714Z,99386.69
2023-03-06T20:36:56.855Z,99391.03
2023-03-06T20:39:26.231Z,99399.69
2023-03-06T20:41:54.882Z,99393.63
2023-03-06T20:44:23.191Z,99392.75
2023-03-06T20:46:52.051Z,99398.81
2023-03-06T20:49:21.052Z,99397.94
2023-03-06T20:51:50.136Z,99393.63
2023-03-06T20:54:18.616Z,99394.47
2023-03-06T20:56:50.701Z,99396.22
2023-03-06T20:59:19.987Z,99397.09
2023-03-06T21:01:48.371Z,99410.94
2023-03-06T21:04:16.934Z,99408.34
2023-03-06T21:06:47.123Z,99404.00
2023-03-06T21:09:16.980Z,99410.06
2023-03-06T21:11:45.530Z,99406.63
2023-03-06T21:14:14.962Z,99412.66
2023-03-06T21:16:44.204Z,99410.06
2023-03-06T21:19:12.825Z,99414.38
2023-03-06T21:21:41.003Z,99415.25
2023-03-06T21:24:09.348Z,99413.50
2023-03-06T21:26:38.106Z,99408.31
2023-03-06T21:29:06.192Z,99411.78
2023-03-06T21:31:35.908Z,99425.63
2023-03-06T21:34:05.545Z,99414.38
2023-03-06T21:36:33.658Z,99421.28
2023-03-06T21:39:01.976Z,99425.59
2023-03-06T21:41:32.286Z,99416.94
2023-03-06T21:44:02.018Z,99408.31
2023-03-06T21:46:30.986Z,99416.94
2023-03-06T21:49:00.990Z,99420.38
2023-03-06T21:51:29.387Z,99424.69
2023-03-06T21:53:58.603Z,99427.28
2023-03-06T21:56:28.594Z,99426.41
2023-03-06T21:58:58.349Z,99422.06
2023-03-06T22:01:28.708Z,99424.69
2023-03-06T22:03:57.014Z,99430.72
2023-03-06T22:06:27.780Z,99423.81
2023-03-06T22:08:57.405Z,99428.13
2023-03-06T22:11:26.954Z,99428.09
2023-03-06T22:13:55.066Z,99428.97
2023-03-06T22:16:23.411Z,99419.47
2023-03-06T22:18:52.700Z,99422.91
2023-03-06T22:21:22.452Z,99414.22
2023-03-06T22:23:52.098Z,99415.09
2023-03-06T22:26:21.041Z,99422.03
2023-03-06T22:28:49.160Z,99418.53
2023-03-06T22:31:19.323Z,99423.75
2023-03-06T22:33:47.664Z,99433.28
2023-03-06T22:36:16.956Z,99432.41
2023-03-06T22:38:47.081Z,99435.03
2023-03-06T22:41:20.175Z,99432.41
2023-03-06T22:43:49.189Z,99431.50
2023-03-06T22:46:18.986Z,99436.72
2023-03-06T22:48:47.140Z,99425.47
2023-03-06T22:51:17.252Z,99424.59
2023-03-06T22:53:45.328Z,99429.81
2023-03-06T22:56:15.442Z,99427.19
2023-03-06T22:58:45.757Z,99418.53
2023-03-06T23:01:16.026Z,99418.47
2023-03-06T23:03:45.724Z,99412.44
2023-03-06T23:06:15.748Z,99417.56
2023-03-06T23:08:51.091Z,99423.56
2023-03-06T23:11:21.581Z,99422.69
2023-03-06T23:14:12.170Z,99420.91
2023-03-06T23:16:58.982Z,99420.84
2023-03-06T23:19:45.654Z,99419.88
2023-03-06T23:22:32.316Z,99422.38
2023-03-06T23:25:19.112Z,99430.09
2023-03-06T23:27:47.101Z,99418.81
2023-03-06T23:30:17.463Z,99423.97
2023-03-06T23:32:46.098Z,99426.53
2023-03-06T23:35:14.469Z,99423.06
2023-03-06T23:37:42.447Z,99423.97
2023-03-06T23:40:13.725Z,99425.69
2023-03-06T23:42:41.769Z,99418.78
2023-03-06T23:45:11.218Z,99435.28
2023-03-06T23:47:40.713Z,99433.53
2023-03-06T23:50:09.647Z,99435.25
2023-03-06T23:52:37.682Z,99435.19
2023-03-06T23:55:06.785Z,99430.84
2023-03-06T23:57:34.883Z,99436.03
